Time;durP1;ratioP1;P1;durP2;ratioP2;P2;SDS_P1;SDS_P2;PMS_P1;PMS_P2;Temp;Humidity;BMP_temperature;BMP_pressure;BME280_temperature;BME280_humidity;BME280_pressure;Samples;Min_cycle;Max_cycle;Signal;HPM_P1;HPM_P2
2021/06/13 00:01:19;;;;;;;7.03;4.90;;;;;;;;;;4994172;28;20431;-67
2021/06/13 00:03:46;;;;;;;8.20;4.90;;;;;;;;;;4987275;28;20433;-67
2021/06/13 00:06:12;;;;;;;8.27;4.73;;;;;;;;;;4975935;28;20406;-67
2021/06/13 00:08:38;;;;;;;5.93;4.57;;;;;;;;;;4993646;28;20559;-66
2021/06/13 00:11:04;;;;;;;5.23;4.73;;;;;;;;;;4994828;28;20539;-68
2021/06/13 00:13:30;;;;;;;6.43;5.73;;;;;;;;;;4994986;28;20420;-66
2021/06/13 00:15:56;;;;;;;7.30;5.87;;;;;;;;;;4995373;28;20396;-66
2021/06/13 00:18:22;;;;;;;7.33;5.63;;;;;;;;;;4994403;28;20424;-66
2021/06/13 00:20:50;;;;;;;5.90;4.70;;;;;;;;;;4994950;28;20505;-67
2021/06/13 00:23:16;;;;;;;7.73;5.10;;;;;;;;;;4992823;28;20429;-67
2021/06/13 00:25:42;;;;;;;6.57;4.90;;;;;;;;;;4994331;28;20472;-66
2021/06/13 00:28:08;;;;;;;7.20;5.20;;;;;;;;;;4994029;28;20987;-67
2021/06/13 00:30:35;;;;;;;5.80;5.10;;;;;;;;;;4995023;28;20511;-66
2021/06/13 00:33:01;;;;;;;7.07;5.63;;;;;;;;;;4994186;28;20420;-67
2021/06/13 00:35:27;;;;;;;10.47;5.20;;;;;;;;;;4995526;28;20413;-67
2021/06/13 00:37:53;;;;;;;6.80;4.70;;;;;;;;;;4980816;28;20520;-67
2021/06/13 00:40:22;;;;;;;6.73;5.47;;;;;;;;;;4975385;28;20957;-66
2021/06/13 00:42:48;;;;;;;9.27;5.00;;;;;;;;;;4989715;28;20479;-67
2021/06/13 00:45:14;;;;;;;8.57;5.80;;;;;;;;;;4995193;28;20417;-66
2021/06/13 00:47:40;;;;;;;7.00;5.30;;;;;;;;;;4993781;28;20428;-67
2021/06/13 00:50:12;;;;;;;7.60;5.57;;;;;;;;;;4994993;28;20776;-67
2021/06/13 00:52:38;;;;;;;7.43;5.40;;;;;;;;;;4993180;28;20429;-67
2021/06/13 00:55:05;;;;;;;5.97;5.00;;;;;;;;;;4993167;28;20511;-67
2021/06/13 00:57:31;;;;;;;12.97;5.40;;;;;;;;;;4990291;28;20427;-66
2021/06/13 00:59:58;;;;;;;6.87;5.00;;;;;;;;;;4986997;28;20557;-67
2021/06/13 01:02:24;;;;;;;6.80;5.03;;;;;;;;;;4983569;28;20952;-66
2021/06/13 01:04:51;;;;;;;9.20;4.93;;;;;;;;;;4994712;28;20416;-67
2021/06/13 01:07:19;;;;;;;6.93;5.47;;;;;;;;;;4993448;28;20482;-66
2021/06/13 01:10:06;;;;;;;11.57;6.50;;;;;;;;;;4994710;28;20550;-67
2021/06/13 01:12:52;;;;;;;6.93;5.67;;;;;;;;;;4993730;28;20436;-67
2021/06/13 01:15:21;;;;;;;9.33;6.20;;;;;;;;;;4984164;28;20408;-67
2021/06/13 01:17:49;;;;;;;7.50;4.70;;;;;;;;;;4993707;28;20439;-67
2021/06/13 01:20:24;;;;;;;9.20;5.67;;;;;;;;;;4994265;28;20408;-67
2021/06/13 01:23:08;;;;;;;7.43;5.20;;;;;;;;;;4993733;28;20943;-66
2021/06/13 01:25:43;;;;;;;10.00;5.90;;;;;;;;;;4994375;28;20894;-67
2021/06/13 01:28:18;;;;;;;10.17;5.87;;;;;;;;;;4993202;28;20830;-66
2021/06/13 01:30:46;;;;;;;6.87;5.87;;;;;;;;;;4994182;28;20907;-66
2021/06/13 01:33:14;;;;;;;6.47;5.43;;;;;;;;;;4992984;28;20478;-66
2021/06/13 01:35:41;;;;;;;10.93;6.67;;;;;;;;;;4994031;28;20401;-66
2021/06/13 01:38:09;;;;;;;11.37;6.13;;;;;;;;;;4980076;28;20430;-66
2021/06/13 01:40:35;;;;;;;9.10;6.27;;;;;;;;;;4973351;28;20441;-66
2021/06/13 01:43:02;;;;;;;7.87;5.40;;;;;;;;;;4974643;28;20429;-66
2021/06/13 01:45:32;;;;;;;10.33;6.60;;;;;;;;;;4986288;28;20467;-66
2021/06/13 01:47:58;;;;;;;7.27;6.07;;;;;;;;;;4982963;28;20492;-66
2021/06/13 01:50:26;;;;;;;8.97;5.90;;;;;;;;;;4974618;28;20425;-66
2021/06/13 01:52:52;;;;;;;7.13;5.77;;;;;;;;;;4984940;28;20424;-66
2021/06/13 01:55:19;;;;;;;7.50;5.80;;;;;;;;;;4993862;28;20408;-66
2021/06/13 01:57:46;;;;;;;6.00;5.30;;;;;;;;;;4986903;28;20429;-67
2021/06/13 02:00:13;;;;;;;8.30;6.17;;;;;;;;;;4976820;28;20762;-66
2021/06/13 02:02:41;;;;;;;8.77;6.27;;;;;;;;;;4989570;28;20797;-67
2021/06/13 02:05:07;;;;;;;9.90;5.83;;;;;;;;;;4998506;28;20750;-67
2021/06/13 02:07:35;;;;;;;8.57;6.80;;;;;;;;;;5013961;28;20486;-67
2021/06/13 02:10:04;;;;;;;7.73;6.73;;;;;;;;;;4997883;28;20477;-67
2021/06/13 02:12:31;;;;;;;7.70;6.17;;;;;;;;;;4996715;28;20419;-67
2021/06/13 02:14:58;;;;;;;12.20;6.27;;;;;;;;;;4998145;28;20393;-66
2021/06/13 02:17:24;;;;;;;8.63;6.10;;;;;;;;;;4996261;28;20396;-67
2021/06/13 02:19:50;;;;;;;9.90;5.67;;;;;;;;;;4994367;28;20397;-66
2021/06/13 02:22:18;;;;;;;12.50;6.10;;;;;;;;;;4994393;28;20413;-66
2021/06/13 02:24:45;;;;;;;7.63;6.47;;;;;;;;;;4993624;28;20436;-65
2021/06/13 02:27:14;;;;;;;10.60;6.90;;;;;;;;;;5004312;28;20450;-66
2021/06/13 02:29:41;;;;;;;8.73;5.80;;;;;;;;;;4993139;28;21087;-66
2021/06/13 02:32:09;;;;;;;9.53;6.77;;;;;;;;;;4994298;28;20486;-66
2021/06/13 02:34:35;;;;;;;6.70;5.43;;;;;;;;;;4976225;28;20744;-66
2021/06/13 02:37:02;;;;;;;10.07;6.03;;;;;;;;;;4974298;28;20489;-66
2021/06/13 02:39:29;;;;;;;7.53;5.60;;;;;;;;;;4974516;28;20840;-66
2021/06/13 02:41:55;;;;;;;10.67;6.27;;;;;;;;;;4974427;28;20792;-66
2021/06/13 02:44:21;;;;;;;10.60;6.43;;;;;;;;;;4988652;28;20524;-66
2021/06/13 02:46:47;;;;;;;7.97;6.03;;;;;;;;;;4993970;28;20782;-66
2021/06/13 02:49:13;;;;;;;8.60;6.20;;;;;;;;;;4994921;28;20444;-65
2021/06/13 02:51:42;;;;;;;7.83;5.70;;;;;;;;;;4997093;28;20499;-66
2021/06/13 02:54:10;;;;;;;6.73;5.63;;;;;;;;;;4994891;28;20439;-66
2021/06/13 02:56:55;;;;;;;9.10;6.80;;;;;;;;;;4996964;28;20408;-66
2021/06/13 02:59:27;;;;;;;8.80;5.90;;;;;;;;;;4993165;28;20416;-66
2021/06/13 03:01:55;;;;;;;7.93;6.50;;;;;;;;;;4996677;28;20821;-66
2021/06/13 03:04:22;;;;;;;8.43;6.40;;;;;;;;;;4996000;28;20447;-66
2021/06/13 03:06:51;;;;;;;11.37;6.93;;;;;;;;;;4996506;28;20412;-66
2021/06/13 03:09:18;;;;;;;8.20;5.97;;;;;;;;;;4982380;28;20536;-66
2021/06/13 03:11:45;;;;;;;9.90;6.10;;;;;;;;;;4976860;28;20820;-66
2021/06/13 03:14:11;;;;;;;7.33;6.40;;;;;;;;;;4988994;28;20432;-66
2021/06/13 03:16:38;;;;;;;7.60;5.70;;;;;;;;;;4996265;28;20484;-66
2021/06/13 03:19:05;;;;;;;6.70;5.50;;;;;;;;;;4984381;28;20819;-66
2021/06/13 03:21:31;;;;;;;8.60;6.63;;;;;;;;;;4976518;28;20505;-66
2021/06/13 03:23:58;;;;;;;7.37;5.60;;;;;;;;;;4986937;28;20485;-66
2021/06/13 03:26:24;;;;;;;7.53;5.27;;;;;;;;;;4996323;28;20412;-66
2021/06/13 03:28:54;;;;;;;9.47;6.53;;;;;;;;;;4986409;28;20453;-66
2021/06/13 03:31:21;;;;;;;10.93;6.33;;;;;;;;;;4978213;28;20793;-67
2021/06/13 03:33:47;;;;;;;8.30;6.47;;;;;;;;;;4986238;28;20823;-67
2021/06/13 03:36:14;;;;;;;9.47;6.57;;;;;;;;;;4997486;28;20404;-66
2021/06/13 03:38:40;;;;;;;6.80;6.10;;;;;;;;;;4996205;28;20524;-66
2021/06/13 03:41:07;;;;;;;8.20;7.00;;;;;;;;;;4997519;28;20436;-66
2021/06/13 03:43:34;;;;;;;9.37;6.20;;;;;;;;;;4988483;28;20440;-66
2021/06/13 03:46:01;;;;;;;10.93;6.40;;;;;;;;;;4978547;28;20906;-66
2021/06/13 03:48:27;;;;;;;8.33;6.63;;;;;;;;;;4983421;28;20452;-66
2021/06/13 03:50:54;;;;;;;9.67;6.77;;;;;;;;;;4997997;28;20479;-66
2021/06/13 03:53:22;;;;;;;13.27;7.73;;;;;;;;;;4995621;28;20440;-67
2021/06/13 03:55:48;;;;;;;10.37;7.17;;;;;;;;;;4997352;28;20424;-66
2021/06/13 03:58:14;;;;;;;10.13;7.57;;;;;;;;;;4997500;28;20439;-66
2021/06/13 04:00:42;;;;;;;11.27;6.50;;;;;;;;;;4995384;28;20456;-66
2021/06/13 04:03:09;;;;;;;7.23;6.23;;;;;;;;;;4998737;28;20415;-66
2021/06/13 04:05:35;;;;;;;10.90;6.83;;;;;;;;;;4987056;28;20526;-66
2021/06/13 04:08:01;;;;;;;9.93;6.20;;;;;;;;;;4977692;28;20464;-67
2021/06/13 04:10:27;;;;;;;12.93;7.20;;;;;;;;;;4976877;28;20473;-67
2021/06/13 04:12:55;;;;;;;9.50;6.97;;;;;;;;;;4977396;28;20396;-67
2021/06/13 04:15:21;;;;;;;8.80;6.33;;;;;;;;;;4991745;28;20424;-66
2021/06/13 04:17:48;;;;;;;10.23;6.87;;;;;;;;;;4996801;28;20495;-66
2021/06/13 04:20:14;;;;;;;11.50;6.67;;;;;;;;;;4995230;28;20448;-67
2021/06/13 04:22:41;;;;;;;8.70;6.40;;;;;;;;;;5007643;28;20440;-67
2021/06/13 04:25:08;;;;;;;13.17;7.20;;;;;;;;;;4991519;28;20428;-66
2021/06/13 04:27:35;;;;;;;8.30;6.50;;;;;;;;;;4996123;28;20789;-66
2021/06/13 04:30:02;;;;;;;10.10;6.33;;;;;;;;;;4994881;28;20472;-67
2021/06/13 04:32:28;;;;;;;10.30;6.77;;;;;;;;;;4996258;28;20404;-66
2021/06/13 04:34:54;;;;;;;10.13;7.17;;;;;;;;;;4995360;28;20902;-66
2021/06/13 04:37:20;;;;;;;7.37;6.50;;;;;;;;;;4995931;28;20893;-66
2021/06/13 04:39:46;;;;;;;9.20;6.97;;;;;;;;;;4995212;28;20439;-66
2021/06/13 04:42:12;;;;;;;10.20;6.93;;;;;;;;;;4995597;28;20429;-66
2021/06/13 04:44:38;;;;;;;9.40;7.30;;;;;;;;;;4987179;28;20434;-66
2021/06/13 04:47:05;;;;;;;11.13;6.57;;;;;;;;;;4976438;28;20410;-66
2021/06/13 04:49:32;;;;;;;8.83;6.10;;;;;;;;;;4982825;28;20559;-67
2021/06/13 04:51:58;;;;;;;8.27;6.83;;;;;;;;;;4995702;28;20494;-67
2021/06/13 04:54:41;;;;;;;6.53;5.47;;;;;;;;;;4993866;28;20421;-67
2021/06/13 04:57:12;;;;;;;12.37;6.73;;;;;;;;;;4994720;28;20392;-66
2021/06/13 04:59:38;;;;;;;6.73;5.20;;;;;;;;;;4994883;28;20436;-67
2021/06/13 05:02:04;;;;;;;13.60;5.23;;;;;;;;;;4995301;28;20945;-66
2021/06/13 05:04:30;;;;;;;6.63;5.37;;;;;;;;;;4994620;28;20429;-66
2021/06/13 05:06:56;;;;;;;8.83;5.87;;;;;;;;;;4995800;28;20495;-66
2021/06/13 05:09:22;;;;;;;7.90;5.43;;;;;;;;;;4994479;28;20543;-67
2021/06/13 05:11:48;;;;;;;10.40;5.93;;;;;;;;;;4994681;28;20448;-66
2021/06/13 05:14:14;;;;;;;10.27;5.57;;;;;;;;;;4994694;28;20433;-67
2021/06/13 05:16:41;;;;;;;7.30;5.43;;;;;;;;;;4995757;28;20397;-66
2021/06/13 05:19:08;;;;;;;7.60;5.50;;;;;;;;;;4994297;28;20439;-67
2021/06/13 05:21:34;;;;;;;9.13;5.93;;;;;;;;;;4995795;28;20798;-66
2021/06/13 05:24:01;;;;;;;11.13;5.97;;;;;;;;;;4993572;28;20404;-67
2021/06/13 05:26:28;;;;;;;8.00;4.63;;;;;;;;;;4995314;28;20771;-66
2021/06/13 05:28:54;;;;;;;7.30;4.87;;;;;;;;;;4975527;28;20976;-67
2021/06/13 05:31:20;;;;;;;6.33;3.93;;;;;;;;;;4975559;28;20480;-66
2021/06/13 05:33:47;;;;;;;6.27;3.57;;;;;;;;;;4976031;28;20413;-66
2021/06/13 05:36:13;;;;;;;6.67;3.80;;;;;;;;;;4993907;28;20761;-67
2021/06/13 05:38:41;;;;;;;7.30;4.17;;;;;;;;;;4995144;28;20416;-66
2021/06/13 05:41:07;;;;;;;5.27;3.53;;;;;;;;;;4977521;28;20467;-66
2021/06/13 05:43:33;;;;;;;6.80;4.00;;;;;;;;;;4975646;28;20893;-67
2021/06/13 05:46:01;;;;;;;7.00;3.70;;;;;;;;;;4990870;28;20921;-66
2021/06/13 05:48:27;;;;;;;5.07;3.67;;;;;;;;;;4995069;28;20452;-66
2021/06/13 05:50:53;;;;;;;5.97;3.83;;;;;;;;;;4993404;28;20459;-66
2021/06/13 05:53:19;;;;;;;4.80;3.50;;;;;;;;;;4994468;28;20397;-66
2021/06/13 05:55:46;;;;;;;8.13;4.00;;;;;;;;;;4992844;28;20424;-67
2021/06/13 05:58:12;;;;;;;7.60;3.83;;;;;;;;;;4993496;28;20420;-66
2021/06/13 06:00:38;;;;;;;6.40;4.13;;;;;;;;;;4990750;28;20965;-66
2021/06/13 06:03:06;;;;;;;5.63;3.83;;;;;;;;;;4993424;28;20424;-66
2021/06/13 06:05:32;;;;;;;6.77;4.07;;;;;;;;;;4991911;28;20424;-69
2021/06/13 06:07:58;;;;;;;7.63;4.83;;;;;;;;;;4994809;28;20428;-65
2021/06/13 06:10:26;;;;;;;10.40;4.93;;;;;;;;;;4998020;28;20455;-65
2021/06/13 06:12:56;;;;;;;6.37;3.97;;;;;;;;;;4998107;28;20431;-64
2021/06/13 06:15:22;;;;;;;7.93;3.47;;;;;;;;;;4997370;28;20429;-64
2021/06/13 06:17:49;;;;;;;8.53;3.70;;;;;;;;;;4999836;28;20514;-63
2021/06/13 06:20:17;;;;;;;6.03;4.20;;;;;;;;;;5001015;28;20416;-64
2021/06/13 06:22:43;;;;;;;6.50;3.77;;;;;;;;;;4991855;28;20420;-64
2021/06/13 06:25:10;;;;;;;7.37;3.70;;;;;;;;;;4985911;28;20406;-63
2021/06/13 06:27:37;;;;;;;6.20;4.80;;;;;;;;;;4985130;28;20433;-63
2021/06/13 06:30:04;;;;;;;7.53;3.73;;;;;;;;;;4984572;28;20487;-63
2021/06/13 06:32:30;;;;;;;7.43;3.93;;;;;;;;;;4983692;28;20499;-63
2021/06/13 06:34:56;;;;;;;7.80;4.20;;;;;;;;;;4982935;28;20402;-63
2021/06/13 06:37:22;;;;;;;7.50;4.00;;;;;;;;;;4993972;28;20447;-63
2021/06/13 06:39:48;;;;;;;6.20;3.90;;;;;;;;;;5003144;28;20432;-63
2021/06/13 06:42:14;;;;;;;6.70;4.23;;;;;;;;;;4999288;28;20457;-63
2021/06/13 06:44:40;;;;;;;6.40;4.33;;;;;;;;;;4985665;28;20815;-63
2021/06/13 06:47:06;;;;;;;8.13;5.03;;;;;;;;;;4988193;28;20882;-63
2021/06/13 06:49:33;;;;;;;6.50;4.00;;;;;;;;;;5004080;28;20809;-63
2021/06/13 06:51:59;;;;;;;7.93;4.57;;;;;;;;;;5002222;28;20917;-63
2021/06/13 06:54:26;;;;;;;9.17;3.87;;;;;;;;;;4984836;28;20406;-63
2021/06/13 06:56:52;;;;;;;8.90;4.33;;;;;;;;;;4985404;28;20487;-64
2021/06/13 06:59:18;;;;;;;7.30;5.20;;;;;;;;;;5004138;28;20472;-63
2021/06/13 07:01:44;;;;;;;6.20;4.30;;;;;;;;;;5004883;28;20478;-63
2021/06/13 07:04:10;;;;;;;7.83;4.10;;;;;;;;;;5003460;28;20413;-62
2021/06/13 07:06:36;;;;;;;5.50;4.23;;;;;;;;;;4997805;28;20412;-67
2021/06/13 07:09:03;;;;;;;7.73;5.30;;;;;;;;;;4995247;28;20456;-68
2021/06/13 07:11:29;;;;;;;12.03;4.67;;;;;;;;;;4995556;28;20813;-67
2021/06/13 07:13:55;;;;;;;7.50;4.80;;;;;;;;;;4993637;28;20427;-67
2021/06/13 07:16:21;;;;;;;8.13;4.23;;;;;;;;;;4995598;28;20409;-66
2021/06/13 07:18:48;;;;;;;6.73;4.43;;;;;;;;;;4994687;28;20478;-66
2021/06/13 07:21:15;;;;;;;6.13;4.23;;;;;;;;;;4995986;28;21003;-67
2021/06/13 07:23:40;;;;;;;7.50;4.70;;;;;;;;;;4995312;28;20938;-66
2021/06/13 07:26:07;;;;;;;6.70;4.07;;;;;;;;;;4996079;28;20407;-65
2021/06/13 07:28:34;;;;;;;9.10;4.30;;;;;;;;;;4994974;28;20452;-65
2021/06/13 07:31:01;;;;;;;7.97;4.30;;;;;;;;;;4996113;28;20451;-65
2021/06/13 07:33:28;;;;;;;6.80;5.30;;;;;;;;;;4995084;28;20432;-66
2021/06/13 07:35:54;;;;;;;7.00;4.70;;;;;;;;;;4995497;28;20920;-65
2021/06/13 07:38:20;;;;;;;6.50;4.00;;;;;;;;;;4994257;28;20937;-66
2021/06/13 07:40:47;;;;;;;6.40;4.40;;;;;;;;;;4995699;28;20933;-65
2021/06/13 07:43:13;;;;;;;6.87;4.77;;;;;;;;;;4993526;28;20436;-65
2021/06/13 07:45:39;;;;;;;9.57;4.80;;;;;;;;;;4994244;28;20455;-67
2021/06/13 07:48:06;;;;;;;8.30;4.97;;;;;;;;;;4984224;28;20441;-66
2021/06/13 07:50:32;;;;;;;8.03;5.00;;;;;;;;;;4995547;28;20428;-67
2021/06/13 07:52:58;;;;;;;8.03;5.00;;;;;;;;;;4994557;28;20794;-67
2021/06/13 07:55:24;;;;;;;8.30;5.13;;;;;;;;;;4995806;28;20405;-67
2021/06/13 07:57:50;;;;;;;7.67;4.80;;;;;;;;;;4988635;28;20819;-66
2021/06/13 08:00:19;;;;;;;8.73;4.57;;;;;;;;;;4975973;28;20426;-66
2021/06/13 08:02:45;;;;;;;5.90;4.00;;;;;;;;;;4979305;28;20859;-66
2021/06/13 08:05:13;;;;;;;8.03;5.10;;;;;;;;;;4995314;28;20421;-66
2021/06/13 08:07:39;;;;;;;8.87;4.63;;;;;;;;;;4990364;28;20425;-66
2021/06/13 08:10:06;;;;;;;6.80;4.50;;;;;;;;;;4975348;28;20469;-66
2021/06/13 08:12:32;;;;;;;8.73;3.50;;;;;;;;;;4980638;28;20432;-67
2021/06/13 08:14:58;;;;;;;5.90;4.37;;;;;;;;;;4994947;28;20439;-67
2021/06/13 08:17:25;;;;;;;6.10;4.53;;;;;;;;;;4992847;28;20400;-67
2021/06/13 08:19:51;;;;;;;10.47;4.93;;;;;;;;;;4975035;28;20735;-67
2021/06/13 08:22:17;;;;;;;8.17;4.70;;;;;;;;;;4975501;28;20581;-67
2021/06/13 08:24:43;;;;;;;8.27;4.27;;;;;;;;;;4994206;28;20417;-67
2021/06/13 08:27:09;;;;;;;5.07;4.33;;;;;;;;;;4994892;28;20396;-67
2021/06/13 08:29:35;;;;;;;7.70;4.90;;;;;;;;;;4993500;28;20459;-67
2021/06/13 08:32:01;;;;;;;7.57;4.73;;;;;;;;;;4993408;28;20443;-68
2021/06/13 08:34:27;;;;;;;5.77;4.20;;;;;;;;;;4976970;28;20421;-67
2021/06/13 08:36:53;;;;;;;7.13;4.50;;;;;;;;;;4975290;28;20398;-67
2021/06/13 08:39:19;;;;;;;9.87;4.20;;;;;;;;;;4990970;28;20428;-67
2021/06/13 08:41:45;;;;;;;7.80;4.33;;;;;;;;;;4994625;28;20420;-67
2021/06/13 08:44:11;;;;;;;6.90;4.20;;;;;;;;;;4993487;28;21066;-67
2021/06/13 08:46:38;;;;;;;6.23;4.10;;;;;;;;;;4994062;28;20829;-67
2021/06/13 08:49:05;;;;;;;4.60;3.80;;;;;;;;;;4993187;28;20452;-67
2021/06/13 08:51:31;;;;;;;9.80;4.40;;;;;;;;;;4994347;28;20424;-68
2021/06/13 08:53:57;;;;;;;6.97;4.77;;;;;;;;;;4992895;28;20436;-67
2021/06/13 08:56:23;;;;;;;8.07;4.73;;;;;;;;;;4994384;28;20490;-67
2021/06/13 08:58:50;;;;;;;7.43;4.23;;;;;;;;;;4993099;28;20762;-67
2021/06/13 09:01:16;;;;;;;6.93;4.97;;;;;;;;;;4994486;28;20428;-67
2021/06/13 09:03:43;;;;;;;4.97;3.90;;;;;;;;;;4988065;28;20436;-67
2021/06/13 09:06:09;;;;;;;5.27;3.73;;;;;;;;;;4974637;28;20423;-67
2021/06/13 09:08:40;;;;;;;5.90;4.47;;;;;;;;;;4978849;28;21022;-67
2021/06/13 09:11:06;;;;;;;6.60;4.53;;;;;;;;;;4994150;28;20564;-68
2021/06/13 09:13:34;;;;;;;6.10;4.00;;;;;;;;;;4993100;28;20425;-67
2021/06/13 09:16:02;;;;;;;4.63;3.40;;;;;;;;;;4993850;28;20397;-67
2021/06/13 09:18:41;;;;;;;8.13;4.70;;;;;;;;;;4990067;28;20440;-67
2021/06/13 09:21:12;;;;;;;6.30;3.47;;;;;;;;;;4974332;28;20563;-67
2021/06/13 09:23:39;;;;;;;7.00;4.00;;;;;;;;;;4983130;28;20459;-67
2021/06/13 09:26:06;;;;;;;8.50;4.60;;;;;;;;;;4974077;28;20407;-67
2021/06/13 09:28:34;;;;;;;5.90;3.87;;;;;;;;;;4990433;28;20823;-67
2021/06/13 09:31:00;;;;;;;8.30;4.30;;;;;;;;;;4993741;28;20527;-67
2021/06/13 09:33:29;;;;;;;9.80;4.47;;;;;;;;;;4992387;28;20459;-67
2021/06/13 09:35:56;;;;;;;7.00;3.60;;;;;;;;;;4993358;28;20400;-67
2021/06/13 09:38:48;;;;;;;6.67;3.87;;;;;;;;;;4992427;28;20428;-68
2021/06/13 09:41:18;;;;;;;5.40;3.40;;;;;;;;;;4992340;28;20455;-67
2021/06/13 09:43:47;;;;;;;5.60;3.67;;;;;;;;;;4992742;28;20436;-67
2021/06/13 09:46:15;;;;;;;8.00;4.07;;;;;;;;;;4993803;28;20484;-67
2021/06/13 09:48:45;;;;;;;7.37;3.60;;;;;;;;;;4992732;28;20460;-68
2021/06/13 09:51:17;;;;;;;6.07;3.57;;;;;;;;;;4993672;28;20448;-67
2021/06/13 09:53:44;;;;;;;5.33;2.80;;;;;;;;;;4992965;28;20417;-67
2021/06/13 09:56:10;;;;;;;4.80;2.80;;;;;;;;;;4993995;28;20413;-68
2021/06/13 09:58:45;;;;;;;5.33;3.33;;;;;;;;;;4993737;28;20440;-67
2021/06/13 10:01:11;;;;;;;5.80;2.90;;;;;;;;;;4983046;28;21000;-67
2021/06/13 10:03:38;;;;;;;7.83;3.53;;;;;;;;;;4996677;28;20432;-67
2021/06/13 10:06:14;;;;;;;4.30;2.40;;;;;;;;;;4997737;28;20405;-67
2021/06/13 10:08:41;;;;;;;5.40;2.43;;;;;;;;;;4996392;28;20519;-67
2021/06/13 10:11:08;;;;;;;4.90;2.43;;;;;;;;;;4997395;28;20457;-67
2021/06/13 10:13:55;;;;;;;3.57;2.10;;;;;;;;;;4996723;28;20412;-67
2021/06/13 10:16:43;;;;;;;5.80;3.20;;;;;;;;;;4997609;28;20454;-67
2021/06/13 10:19:11;;;;;;;3.57;2.50;;;;;;;;;;4987625;28;20437;-67
2021/06/13 10:21:39;;;;;;;5.40;3.00;;;;;;;;;;4977763;28;20425;-67
2021/06/13 10:24:06;;;;;;;3.70;2.33;;;;;;;;;;4982630;28;20428;-67
2021/06/13 10:26:33;;;;;;;5.53;3.03;;;;;;;;;;4996991;28;20397;-67
2021/06/13 10:28:59;;;;;;;5.67;2.37;;;;;;;;;;4996121;28;20594;-68
2021/06/13 10:31:26;;;;;;;6.40;2.60;;;;;;;;;;4997203;28;20436;-68
2021/06/13 10:33:52;;;;;;;3.73;2.30;;;;;;;;;;4996082;28;20421;-67
2021/06/13 10:36:18;;;;;;;4.97;2.60;;;;;;;;;;4995577;28;20460;-68
2021/06/13 10:38:44;;;;;;;4.97;2.60;;;;;;;;;;4995942;28;20407;-67
2021/06/13 10:41:10;;;;;;;3.83;2.70;;;;;;;;;;4997037;28;20793;-67
2021/06/13 10:43:37;;;;;;;5.67;2.40;;;;;;;;;;4995969;28;20889;-67
2021/06/13 10:46:12;;;;;;;4.20;3.00;;;;;;;;;;4997151;28;20408;-67
2021/06/13 10:48:44;;;;;;;4.07;2.73;;;;;;;;;;4994568;28;20486;-68
2021/06/13 10:51:29;;;;;;;5.80;2.40;;;;;;;;;;4996636;28;20479;-67
2021/06/13 10:54:15;;;;;;;3.60;2.77;;;;;;;;;;4994349;28;20436;-67
2021/06/13 10:56:41;;;;;;;3.80;2.77;;;;;;;;;;4996456;28;20772;-67
2021/06/13 10:59:13;;;;;;;3.80;2.67;;;;;;;;;;4994539;28;20432;-67
2021/06/13 11:01:55;;;;;;;3.23;2.47;;;;;;;;;;4986793;28;20541;-67
2021/06/13 11:04:40;;;;;;;4.30;2.30;;;;;;;;;;4982066;28;20482;-68
2021/06/13 11:07:06;;;;;;;5.33;2.60;;;;;;;;;;4996256;28;20416;-67
2021/06/13 11:09:32;;;;;;;8.67;3.00;;;;;;;;;;4983799;28;20559;-67
2021/06/13 11:11:58;;;;;;;5.20;3.00;;;;;;;;;;4995977;28;20451;-67
2021/06/13 11:14:28;;;;;;;4.57;2.57;;;;;;;;;;4995346;28;20432;-67
2021/06/13 11:16:58;;;;;;;4.87;3.03;;;;;;;;;;4996377;28;20789;-67
2021/06/13 11:19:25;;;;;;;5.30;2.97;;;;;;;;;;4995116;28;20437;-68
2021/06/13 11:21:51;;;;;;;4.80;3.23;;;;;;;;;;4996282;28;20881;-68
2021/06/13 11:24:35;;;;;;;5.27;3.30;;;;;;;;;;4995244;28;20780;-67
2021/06/13 11:27:04;;;;;;;4.30;3.33;;;;;;;;;;4996174;28;20512;-67
2021/06/13 11:29:49;;;;;;;6.60;2.50;;;;;;;;;;4994628;28;20464;-67
2021/06/13 11:32:15;;;;;;;4.50;2.93;;;;;;;;;;4996047;28;20421;-67
2021/06/13 11:34:47;;;;;;;4.60;3.37;;;;;;;;;;4992057;28;20489;-67
2021/06/13 11:37:23;;;;;;;5.80;3.60;;;;;;;;;;4995937;28;20400;-67
2021/06/13 11:39:56;;;;;;;4.53;2.70;;;;;;;;;;4993999;28;20478;-67
2021/06/13 11:42:22;;;;;;;3.60;2.70;;;;;;;;;;4995114;28;20811;-67
2021/06/13 11:44:49;;;;;;;10.50;2.70;;;;;;;;;;4995135;28;20969;-67
2021/06/13 11:47:28;;;;;;;5.47;3.23;;;;;;;;;;4980066;28;20922;-67
2021/06/13 11:49:54;;;;;;;3.20;2.30;;;;;;;;;;4982722;28;20595;-67
2021/06/13 11:52:22;;;;;;;4.00;2.70;;;;;;;;;;5002607;28;20555;-67
2021/06/13 11:54:58;;;;;;;4.17;2.80;;;;;;;;;;5001123;28;20428;-67
2021/06/13 11:57:24;;;;;;;7.23;3.17;;;;;;;;;;4997161;28;20801;-67
2021/06/13 11:59:50;;;;;;;7.57;2.70;;;;;;;;;;4994682;28;20424;-67
2021/06/13 12:02:22;;;;;;;6.63;2.50;;;;;;;;;;4996854;28;20424;-67
2021/06/13 12:04:48;;;;;;;5.13;2.40;;;;;;;;;;4991561;28;20943;-67
2021/06/13 12:07:22;;;;;;;3.63;2.20;;;;;;;;;;4975883;28;20452;-66
2021/06/13 12:09:49;;;;;;;4.77;2.40;;;;;;;;;;4993899;28;20452;-66
2021/06/13 12:12:18;;;;;;;3.87;2.13;;;;;;;;;;4995072;28;20487;-67
2021/06/13 12:14:47;;;;;;;5.07;2.50;;;;;;;;;;4994848;28;20432;-67
2021/06/13 12:17:14;;;;;;;3.53;2.50;;;;;;;;;;4995309;28;20432;-67
2021/06/13 12:19:41;;;;;;;2.97;2.07;;;;;;;;;;4977232;28;20836;-67
2021/06/13 12:22:14;;;;;;;4.77;2.10;;;;;;;;;;4974758;28;20457;-67
2021/06/13 12:27:23;;;;;;;8.50;2.27;;;;;;;;;;4995236;28;20405;-67
2021/06/13 12:29:50;;;;;;;3.80;2.00;;;;;;;;;;4993809;28;20463;-67
2021/06/13 12:32:16;;;;;;;3.90;2.53;;;;;;;;;;4995000;28;20559;-67
2021/06/13 12:34:43;;;;;;;5.67;2.30;;;;;;;;;;4993900;28;20429;-67
2021/06/13 12:37:18;;;;;;;7.30;2.40;;;;;;;;;;4994711;28;20420;-67
2021/06/13 12:39:58;;;;;;;3.87;2.30;;;;;;;;;;4980741;28;20905;-67
2021/06/13 12:42:24;;;;;;;8.00;2.03;;;;;;;;;;4993339;28;20425;-67
2021/06/13 12:45:00;;;;;;;4.50;2.23;;;;;;;;;;4993421;28;20425;-67
2021/06/13 12:47:28;;;;;;;4.80;2.00;;;;;;;;;;4994348;28;20499;-67
2021/06/13 12:49:56;;;;;;;3.27;2.20;;;;;;;;;;4993476;28;20452;-67
2021/06/13 12:52:22;;;;;;;3.50;2.03;;;;;;;;;;4993553;28;20486;-67
2021/06/13 12:55:03;;;;;;;5.40;2.93;;;;;;;;;;4976699;28;20796;-67
2021/06/13 12:57:29;;;;;;;3.70;1.90;;;;;;;;;;4975066;28;20405;-67
2021/06/13 12:59:56;;;;;;;5.60;2.20;;;;;;;;;;4974673;28;20491;-66
2021/06/13 13:02:22;;;;;;;6.10;2.20;;;;;;;;;;4973524;28;20433;-67
2021/06/13 13:04:49;;;;;;;4.90;1.90;;;;;;;;;;4991316;28;20482;-66
2021/06/13 13:07:29;;;;;;;4.93;1.53;;;;;;;;;;4992765;28;20427;-66
2021/06/13 13:10:11;;;;;;;3.90;1.97;;;;;;;;;;4974327;28;20985;-66
2021/06/13 13:12:41;;;;;;;3.70;1.60;;;;;;;;;;4975158;28;20459;-66
2021/06/13 13:15:14;;;;;;;2.37;1.50;;;;;;;;;;4992319;28;20420;-66
2021/06/13 13:17:42;;;;;;;2.80;1.60;;;;;;;;;;4994172;28;20409;-66
2021/06/13 13:20:21;;;;;;;4.03;1.47;;;;;;;;;;4993407;28;20440;-66
2021/06/13 13:22:48;;;;;;;2.07;1.20;;;;;;;;;;4993447;28;20718;-66
2021/06/13 13:25:15;;;;;;;4.10;1.50;;;;;;;;;;4993468;28;21009;-66
2021/06/13 13:27:41;;;;;;;2.77;1.67;;;;;;;;;;4994166;28;20400;-66
2021/06/13 13:30:31;;;;;;;3.13;1.70;;;;;;;;;;4992950;28;20456;-67
2021/06/13 13:32:59;;;;;;;2.50;1.60;;;;;;;;;;4989390;28;20425;-67
2021/06/13 13:35:26;;;;;;;3.80;1.87;;;;;;;;;;4993879;28;20484;-67
2021/06/13 13:37:53;;;;;;;3.60;1.60;;;;;;;;;;4991972;28;20428;-68
2021/06/13 13:40:20;;;;;;;4.90;1.60;;;;;;;;;;4993642;28;20432;-67
2021/06/13 13:42:55;;;;;;;2.43;1.20;;;;;;;;;;4994869;28;20491;-67
2021/06/13 13:45:22;;;;;;;3.30;1.63;;;;;;;;;;4994355;28;20430;-66
2021/06/13 13:47:48;;;;;;;2.73;1.50;;;;;;;;;;4991705;28;20421;-67
2021/06/13 13:50:14;;;;;;;2.23;1.57;;;;;;;;;;4992721;28;21028;-67
2021/06/13 13:52:40;;;;;;;3.87;2.00;;;;;;;;;;4993895;28;20419;-67
2021/06/13 13:55:07;;;;;;;3.60;1.73;;;;;;;;;;4992649;28;20436;-67
2021/06/13 13:57:46;;;;;;;3.53;1.93;;;;;;;;;;4993735;28;20428;-67
2021/06/13 14:00:13;;;;;;;3.27;2.30;;;;;;;;;;4992409;28;20447;-67
2021/06/13 14:02:39;;;;;;;3.70;1.50;;;;;;;;;;4990603;28;20789;-67
2021/06/13 14:05:05;;;;;;;6.07;1.40;;;;;;;;;;4992497;28;20444;-67
2021/06/13 14:07:33;;;;;;;4.83;1.80;;;;;;;;;;4993433;28;20822;-67
2021/06/13 14:09:59;;;;;;;3.67;2.00;;;;;;;;;;4991987;28;20507;-66
2021/06/13 14:15:16;;;;;;;2.70;1.77;;;;;;;;;;5045528;28;20433;-85
2021/06/13 14:20:50;;;;;;;3.50;2.10;;;;;;;;;;5030133;28;20499;-87
2021/06/13 14:23:33;;;;;;;2.40;1.30;;;;;;;;;;5020264;28;20443;-85
2021/06/13 14:26:04;;;;;;;2.67;1.73;;;;;;;;;;5038391;28;20422;-85
2021/06/13 14:28:33;;;;;;;3.57;1.40;;;;;;;;;;5041222;28;20985;-85
2021/06/13 14:31:01;;;;;;;6.90;1.80;;;;;;;;;;5023352;28;20546;-87
2021/06/13 14:33:54;;;;;;;;;;;;;;;;;;;;;
2021/06/13 14:36:34;;;;;;;4.10;1.43;;;;;;;;;;5022943;28;20487;-85
2021/06/13 14:42:16;;;;;;;2.97;1.40;;;;;;;;;;5041541;28;20956;-88
2021/06/13 14:44:52;;;;;;;3.57;1.73;;;;;;;;;;5026036;28;20434;-86
2021/06/13 14:47:27;;;;;;;2.03;1.27;;;;;;;;;;5026929;28;20809;-85
2021/06/13 14:49:59;;;;;;;2.63;1.23;;;;;;;;;;5017957;28;20462;-85
2021/06/13 14:52:30;;;;;;;4.30;1.53;;;;;;;;;;5019730;28;20440;-85
2021/06/13 14:55:16;;;;;;;3.07;1.60;;;;;;;;;;5027394;28;20415;-85
2021/06/13 14:58:06;;;;;;;5.57;1.63;;;;;;;;;;5021709;28;20486;-86
2021/06/13 15:00:38;;;;;;;3.10;1.77;;;;;;;;;;5037773;28;20439;-85
2021/06/13 15:03:12;;;;;;;2.40;1.47;;;;;;;;;;5041801;28;20434;-86